Time;durP1;ratioP1;P1;durP2;ratioP2;P2;SDS_P1;SDS_P2;PMS_P1;PMS_P2;Temp;Humidity;BMP_temperature;BMP_pressure;BME280_temperature;BME280_humidity;BME280_pressure;Samples;Min_cycle;Max_cycle;Signal;HPM_P1;HPM_P2
2023/04/24 00:01:08;;;;;;;0.80;0.63;;;;;;;;;;10500331;28;20128;-77
2023/04/24 00:06:11;;;;;;;1.27;0.73;;;;;;;;;;10507216;28;20044;-77
2023/04/24 00:11:15;;;;;;;0.80;0.75;;;;;;;;;;10509811;28;20132;-77
2023/04/24 00:16:18;;;;;;;;;;;;;;;;;;10507605;28;20040;-77
2023/04/24 00:21:21;;;;;;;1.20;0.50;;;;;;;;;;10506714;28;19924;-76
2023/04/24 00:26:25;;;;;;;1.40;0.47;;;;;;;;;;10501900;28;21920;-77
2023/04/24 00:31:27;;;;;;;;;;;;;;;;;;10508911;28;20044;-77
2023/04/24 00:36:30;;;;;;;1.27;0.52;;;;;;;;;;10506052;28;19928;-76
2023/04/24 00:41:34;;;;;;;1.10;0.47;;;;;;;;;;10499601;28;20101;-75
2023/04/24 00:46:36;;;;;;;0.40;0.40;;;;;;;;;;10505683;28;20036;-76
2023/04/24 00:51:40;;;;;;;0.50;0.50;;;;;;;;;;10506480;28;20044;-76
2023/04/24 00:56:45;;;;;;;0.80;0.50;;;;;;;;;;10499202;28;20040;-75
2023/04/24 01:01:47;;;;;;;0.17;0.17;;;;;;;;;;10498508;28;20037;-76
2023/04/24 01:06:50;;;;;;;0.20;0.20;;;;;;;;;;10501993;28;20043;-75
2023/04/24 01:11:56;;;;;;;0.50;0.50;;;;;;;;;;10506550;28;20056;-75
2023/04/24 01:17:00;;;;;;;0.95;0.55;;;;;;;;;;10498164;28;20052;-75
2023/04/24 01:22:03;;;;;;;0.70;0.47;;;;;;;;;;10502251;28;20154;-74
2023/04/24 01:27:07;;;;;;;3.47;0.77;;;;;;;;;;10496635;28;20036;-78
2023/04/24 01:32:10;;;;;;;0.35;0.30;;;;;;;;;;10508427;28;20421;-74
2023/04/24 01:37:13;;;;;;;2.00;0.65;;;;;;;;;;10506057;28;20036;-75
2023/04/24 01:42:17;;;;;;;0.35;0.35;;;;;;;;;;10508916;28;20048;-75
2023/04/24 01:47:20;;;;;;;0.60;0.50;;;;;;;;;;10494427;28;20101;-76
2023/04/24 01:52:23;;;;;;;1.73;0.57;;;;;;;;;;10506789;28;20040;-75
2023/04/24 01:57:27;;;;;;;0.15;0.15;;;;;;;;;;10501444;28;20064;-75
2023/04/24 02:02:30;;;;;;;;;;;;;;;;;;10498468;28;20480;-75
2023/04/24 02:07:33;;;;;;;0.50;0.50;;;;;;;;;;10499944;28;20357;-74
2023/04/24 02:12:36;;;;;;;;;;;;;;;;;;10507239;28;20481;-77
2023/04/24 02:17:40;;;;;;;0.93;0.30;;;;;;;;;;10512436;28;19924;-75
2023/04/24 02:22:44;;;;;;;0.35;0.20;;;;;;;;;;10500519;28;20117;-76
2023/04/24 02:27:46;;;;;;;0.20;0.20;;;;;;;;;;10501410;28;20036;-76
2023/04/24 02:32:52;;;;;;;2.67;0.60;;;;;;;;;;10501133;28;20068;-75
2023/04/24 02:37:54;;;;;;;0.85;0.40;;;;;;;;;;10506165;28;20754;-75
2023/04/24 02:42:57;;;;;;;0.40;0.28;;;;;;;;;;10499206;28;20054;-77
2023/04/24 02:48:01;;;;;;;0.60;0.30;;;;;;;;;;10500499;28;20040;-77
2023/04/24 02:53:04;;;;;;;0.40;0.30;;;;;;;;;;10504881;28;20044;-76
2023/04/24 02:58:07;;;;;;;0.32;0.25;;;;;;;;;;10506556;28;20032;-76
2023/04/24 03:03:11;;;;;;;2.30;0.57;;;;;;;;;;10502625;28;20044;-76
2023/04/24 03:08:15;;;;;;;0.38;0.22;;;;;;;;;;10500647;28;20441;-77
2023/04/24 03:13:17;;;;;;;0.60;0.50;;;;;;;;;;10500444;28;20105;-75
2023/04/24 03:18:21;;;;;;;1.35;0.43;;;;;;;;;;10506774;28;20040;-75
2023/04/24 03:23:24;;;;;;;;;;;;;;;;;;10505866;28;20036;-77
2023/04/24 03:28:26;;;;;;;1.85;0.20;;;;;;;;;;10499897;28;20348;-77
2023/04/24 03:33:30;;;;;;;0.73;0.38;;;;;;;;;;10500738;28;20054;-77
2023/04/24 03:38:34;;;;;;;1.48;0.60;;;;;;;;;;10493292;28;20183;-76
2023/04/24 03:43:37;;;;;;;0.20;0.20;;;;;;;;;;10496463;28;20044;-76
2023/04/24 03:48:41;;;;;;;0.50;0.25;;;;;;;;;;10507805;28;20482;-77
2023/04/24 03:53:44;;;;;;;0.20;0.13;;;;;;;;;;10506081;28;20044;-77
2023/04/24 03:58:47;;;;;;;1.50;0.30;;;;;;;;;;10504636;28;20660;-76
2023/04/24 04:03:51;;;;;;;2.20;0.43;;;;;;;;;;10511624;28;20044;-77
2023/04/24 04:08:54;;;;;;;0.00;0.00;;;;;;;;;;10510305;28;20115;-76
2023/04/24 04:13:57;;;;;;;0.60;0.60;;;;;;;;;;10497051;28;20115;-77
2023/04/24 04:19:02;;;;;;;1.65;0.85;;;;;;;;;;10507842;28;20041;-75
2023/04/24 04:24:07;;;;;;;0.80;0.47;;;;;;;;;;10503710;28;20500;-76
2023/04/24 04:29:10;;;;;;;0.70;0.30;;;;;;;;;;10496701;28;20048;-75
2023/04/24 04:34:14;;;;;;;0.25;0.25;;;;;;;;;;10503535;28;20044;-76
2023/04/24 04:39:18;;;;;;;0.30;0.30;;;;;;;;;;10494007;28;20547;-76
2023/04/24 04:44:21;;;;;;;0.28;0.20;;;;;;;;;;10503148;28;20065;-76
2023/04/24 04:49:28;;;;;;;0.30;0.30;;;;;;;;;;10514284;28;20061;-76
2023/04/24 04:54:31;;;;;;;1.58;0.55;;;;;;;;;;10507219;28;20318;-75
2023/04/24 04:59:33;;;;;;;0.57;0.50;;;;;;;;;;10506179;28;20039;-77
2023/04/24 05:04:37;;;;;;;0.32;0.10;;;;;;;;;;10507811;28;20058;-77
2023/04/24 05:09:40;;;;;;;0.50;0.22;;;;;;;;;;10506061;28;20050;-77
2023/04/24 05:14:43;;;;;;;0.43;0.38;;;;;;;;;;10498560;28;20051;-78
2023/04/24 05:19:47;;;;;;;0.70;0.45;;;;;;;;;;10511922;28;20406;-77
2023/04/24 05:24:51;;;;;;;2.13;0.43;;;;;;;;;;10505737;28;20040;-76
2023/04/24 05:29:54;;;;;;;1.23;0.50;;;;;;;;;;10512665;28;20039;-76
2023/04/24 05:34:59;;;;;;;1.98;0.35;;;;;;;;;;10512962;28;20352;-76
2023/04/24 05:40:05;;;;;;;0.17;0.17;;;;;;;;;;10499316;28;20039;-77
2023/04/24 05:45:14;;;;;;;0.35;0.22;;;;;;;;;;10503638;28;20059;-77
2023/04/24 05:50:19;;;;;;;0.82;0.22;;;;;;;;;;10517833;28;20043;-79
2023/04/24 05:55:22;;;;;;;1.23;0.50;;;;;;;;;;10510905;28;20109;-79
2023/04/24 06:00:25;;;;;;;0.50;0.40;;;;;;;;;;10506574;28;20078;-77
2023/04/24 06:05:29;;;;;;;1.13;0.57;;;;;;;;;;10510759;28;20447;-77
2023/04/24 06:10:33;;;;;;;0.93;0.50;;;;;;;;;;10507309;28;20150;-79
2023/04/24 06:15:36;;;;;;;0.32;0.30;;;;;;;;;;10509908;28;20105;-77
2023/04/24 06:20:40;;;;;;;0.75;0.40;;;;;;;;;;10505931;28;20954;-76
2023/04/24 06:25:43;;;;;;;0.20;0.20;;;;;;;;;;10502539;28;20039;-78
2023/04/24 06:30:46;;;;;;;0.30;0.30;;;;;;;;;;10497515;28;20028;-77
2023/04/24 06:35:50;;;;;;;0.60;0.50;;;;;;;;;;10504949;28;20050;-76
2023/04/24 06:40:52;;;;;;;0.40;0.40;;;;;;;;;;10512723;28;20044;-77
2023/04/24 06:45:55;;;;;;;0.70;0.40;;;;;;;;;;10504805;28;20102;-77
2023/04/24 06:50:59;;;;;;;;;;;;;;;;;;10508172;28;20060;-76
2023/04/24 06:56:03;;;;;;;1.05;0.50;;;;;;;;;;10506916;28;19928;-77
2023/04/24 07:01:07;;;;;;;1.73;0.40;;;;;;;;;;10503014;28;20040;-77
2023/04/24 07:06:11;;;;;;;0.20;0.20;;;;;;;;;;10506379;28;20082;-76
2023/04/24 07:11:17;;;;;;;0.40;0.40;;;;;;;;;;10501213;28;20032;-77
2023/04/24 07:16:20;;;;;;;0.20;0.20;;;;;;;;;;10509440;28;20081;-76
2023/04/24 07:21:24;;;;;;;0.98;0.20;;;;;;;;;;10515271;28;20044;-77
2023/04/24 07:26:28;;;;;;;0.63;0.28;;;;;;;;;;10513904;28;20119;-77
2023/04/24 07:31:32;;;;;;;2.08;0.32;;;;;;;;;;10504769;28;20522;-79
2023/04/24 07:36:35;;;;;;;0.40;0.40;;;;;;;;;;10500234;28;20036;-77
2023/04/24 07:41:40;;;;;;;0.15;0.15;;;;;;;;;;10508773;28;20317;-82
2023/04/24 07:46:50;;;;;;;0.65;0.32;;;;;;;;;;10512616;28;20400;-82
2023/04/24 07:51:52;;;;;;;0.30;0.30;;;;;;;;;;10512694;28;20036;-82
2023/04/24 07:56:56;;;;;;;0.45;0.35;;;;;;;;;;10505950;28;20482;-82
2023/04/24 08:02:01;;;;;;;0.20;0.20;;;;;;;;;;10513084;28;20093;-85
2023/04/24 08:07:03;;;;;;;0.80;0.40;;;;;;;;;;10518386;28;20040;-85
2023/04/24 08:12:08;;;;;;;0.35;0.35;;;;;;;;;;10524320;28;20431;-87
2023/04/24 08:17:11;;;;;;;0.40;0.40;;;;;;;;;;10502754;28;20048;-86
2023/04/24 08:22:23;;;;;;;1.55;0.40;;;;;;;;;;10507652;28;20056;-85
2023/04/24 08:27:28;;;;;;;0.28;0.28;;;;;;;;;;10510190;28;20555;-86
2023/04/24 08:32:30;;;;;;;0.73;0.32;;;;;;;;;;10506282;28;20052;-84
2023/04/24 08:37:34;;;;;;;;;;;;;;;;;;10507510;28;20123;-85
2023/04/24 08:42:39;;;;;;;1.80;0.47;;;;;;;;;;10508896;28;19928;-84
2023/04/24 08:47:45;;;;;;;0.75;0.50;;;;;;;;;;10509502;28;20089;-87
2023/04/24 08:52:50;;;;;;;0.70;0.70;;;;;;;;;;10502009;28;20041;-86
2023/04/24 08:57:54;;;;;;;2.42;0.70;;;;;;;;;;10505491;28;20421;-88
2023/04/24 09:03:01;;;;;;;1.48;0.80;;;;;;;;;;10512700;28;20501;-85
2023/04/24 09:08:07;;;;;;;1.33;0.65;;;;;;;;;;10491840;28;20079;-85
2023/04/24 09:13:20;;;;;;;2.22;0.88;;;;;;;;;;10509765;28;20051;-86
2023/04/24 09:18:24;;;;;;;0.90;0.80;;;;;;;;;;10506798;28;20048;-86
2023/04/24 09:23:40;;;;;;;2.47;0.68;;;;;;;;;;10502555;28;20111;-85
2023/04/24 09:28:54;;;;;;;2.35;1.08;;;;;;;;;;10500316;28;20047;-86
2023/04/24 09:34:03;;;;;;;4.30;1.10;;;;;;;;;;10522860;28;20333;-86
2023/04/24 09:39:15;;;;;;;2.38;1.30;;;;;;;;;;10512629;28;20494;-85
2023/04/24 09:44:26;;;;;;;1.05;0.90;;;;;;;;;;10507381;28;20041;-85
2023/04/24 09:49:39;;;;;;;1.75;0.63;;;;;;;;;;10512675;28;20087;-86
2023/04/24 09:54:56;;;;;;;2.03;1.05;;;;;;;;;;10515398;28;20055;-85
2023/04/24 10:00:33;;;;;;;3.58;1.13;;;;;;;;;;10531441;28;20048;-86
2023/04/24 10:05:56;;;;;;;3.33;1.67;;;;;;;;;;10525245;28;20056;-86
2023/04/24 10:11:05;;;;;;;2.95;1.30;;;;;;;;;;10498458;28;20036;-86
2023/04/24 10:16:22;;;;;;;2.17;0.80;;;;;;;;;;10498709;28;20075;-87
2023/04/24 10:21:30;;;;;;;2.22;1.00;;;;;;;;;;10508405;28;20032;-85
2023/04/24 10:26:38;;;;;;;4.65;1.48;;;;;;;;;;10507300;28;20061;-86
2023/04/24 10:31:47;;;;;;;1.20;1.10;;;;;;;;;;10509507;28;20066;-85
2023/04/24 10:36:55;;;;;;;0.77;0.75;;;;;;;;;;10499926;28;20520;-85
2023/04/24 10:42:01;;;;;;;1.60;1.10;;;;;;;;;;10506871;28;20425;-85
2023/04/24 10:47:13;;;;;;;2.15;1.10;;;;;;;;;;10506938;28;20036;-86
2023/04/24 10:52:32;;;;;;;0.93;0.93;;;;;;;;;;10510881;28;20089;-86
2023/04/24 10:58:07;;;;;;;1.30;1.00;;;;;;;;;;10510663;28;20098;-85
2023/04/24 11:03:51;;;;;;;1.30;0.63;;;;;;;;;;10523184;28;20047;-85
2023/04/24 11:09:03;;;;;;;1.40;0.75;;;;;;;;;;10515325;28;20404;-83
2023/04/24 11:14:18;;;;;;;0.95;0.88;;;;;;;;;;10510960;28;20052;-84
2023/04/24 11:19:31;;;;;;;0.80;0.80;;;;;;;;;;10507216;28;20036;-84
2023/04/24 11:24:41;;;;;;;3.42;1.05;;;;;;;;;;10502646;28;20044;-84
2023/04/24 11:29:52;;;;;;;1.77;1.30;;;;;;;;;;10511992;28;20509;-86
2023/04/24 11:35:10;;;;;;;1.35;1.00;;;;;;;;;;10511106;28;20044;-86
2023/04/24 11:45:31;;;;;;;;;;;;;;;;;;10513932;28;19920;-86
2023/04/24 11:50:52;;;;;;;;;;;;;;;;;;10509965;28;19937;-88
2023/04/24 11:55:56;;;;;;;;;;;;;;;;;;10494414;28;19920;-87
2023/04/24 12:01:11;;;;;;;0.77;0.77;;;;;;;;;;10504670;28;19928;-87
2023/04/24 12:06:20;;;;;;;1.00;0.70;;;;;;;;;;10538799;27;20035;-87
2023/04/24 12:11:26;;;;;;;;;;;;;;;;;;10578946;27;20480;-86
2023/04/24 12:16:32;;;;;;;;;;;;;;;;;;10585148;27;19919;-87
2023/04/24 12:21:52;;;;;;;0.60;0.60;;;;;;;;;;10605448;27;20240;-87
2023/04/24 12:27:19;;;;;;;1.08;0.98;;;;;;;;;;10574340;27;20100;-86
2023/04/24 12:32:26;;;;;;;1.40;1.30;;;;;;;;;;10563099;27;20866;-86
2023/04/24 12:43:16;;;;;;;1.55;1.00;;;;;;;;;;10611346;27;20055;-86
2023/04/24 12:48:22;;;;;;;2.58;1.05;;;;;;;;;;10557783;27;20511;-86
2023/04/24 12:53:31;;;;;;;2.35;1.20;;;;;;;;;;10592121;27;20463;-86
2023/04/24 12:58:51;;;;;;;1.95;1.13;;;;;;;;;;10585352;27;20098;-86
2023/04/24 13:04:05;;;;;;;2.03;0.93;;;;;;;;;;10594593;27;20063;-87
2023/04/24 13:09:23;;;;;;;;;;;;;;;;;;10601329;27;20043;-87
2023/04/24 13:14:43;;;;;;;1.15;0.90;;;;;;;;;;10575439;27;19924;-86
2023/04/24 13:19:51;;;;;;;6.18;1.42;;;;;;;;;;10609431;27;20082;-87
2023/04/24 13:25:01;;;;;;;3.10;1.10;;;;;;;;;;10590753;27;20511;-88
2023/04/24 13:30:19;;;;;;;1.77;1.60;;;;;;;;;;10591592;27;20500;-77
2023/04/24 13:35:23;;;;;;;;;;;;;;;;;;10566158;27;20437;-84
2023/04/24 13:40:35;;;;;;;3.92;1.30;;;;;;;;;;10602409;27;19946;-83
2023/04/24 13:45:47;;;;;;;1.20;1.10;;;;;;;;;;10592758;27;20074;-83
2023/04/24 13:50:53;;;;;;;1.40;1.10;;;;;;;;;;10591211;27;20052;-83
2023/04/24 13:55:59;;;;;;;2.17;1.50;;;;;;;;;;10594479;27;20070;-83
2023/04/24 14:01:09;;;;;;;2.10;1.20;;;;;;;;;;10593276;27;20058;-83
2023/04/24 14:06:28;;;;;;;2.35;1.10;;;;;;;;;;10572955;27;20053;-82
2023/04/24 14:11:42;;;;;;;2.55;1.38;;;;;;;;;;10591872;27;20055;-82
2023/04/24 14:16:50;;;;;;;1.75;1.27;;;;;;;;;;10587536;27;20050;-82
2023/04/24 14:21:58;;;;;;;2.30;1.50;;;;;;;;;;10586862;27;20047;-83
2023/04/24 14:27:03;;;;;;;1.58;1.30;;;;;;;;;;10563480;27;20097;-84
2023/04/24 14:32:14;;;;;;;2.20;1.10;;;;;;;;;;10588062;27;20404;-86
2023/04/24 14:37:19;;;;;;;1.88;1.20;;;;;;;;;;10602240;27;20091;-83
2023/04/24 14:42:29;;;;;;;3.80;1.20;;;;;;;;;;10546998;27;20039;-83
2023/04/24 14:47:45;;;;;;;3.50;1.08;;;;;;;;;;10589130;27;20419;-84
2023/04/24 14:53:02;;;;;;;2.30;1.30;;;;;;;;;;10582488;27;20085;-84
2023/04/24 14:58:10;;;;;;;1.35;1.00;;;;;;;;;;10584622;27;20055;-84
2023/04/24 15:03:34;;;;;;;3.72;1.30;;;;;;;;;;10589463;27;20043;-84
2023/04/24 15:08:45;;;;;;;3.15;1.55;;;;;;;;;;10590837;27;20046;-84
2023/04/24 15:13:53;;;;;;;2.20;1.10;;;;;;;;;;10564608;27;20114;-83
2023/04/24 15:19:08;;;;;;;2.25;1.05;;;;;;;;;;10597618;27;20112;-83
2023/04/24 15:24:18;;;;;;;1.17;1.10;;;;;;;;;;10587889;27;20800;-83
2023/04/24 15:29:25;;;;;;;1.58;1.15;;;;;;;;;;10572009;27;20039;-85
2023/04/24 15:34:53;;;;;;;2.05;1.30;;;;;;;;;;10580817;27;20493;-85
2023/04/24 15:45:41;;;;;;;2.08;1.05;;;;;;;;;;10576214;27;20488;-83
2023/04/24 15:50:53;;;;;;;2.88;0.95;;;;;;;;;;10593338;27;20051;-85
2023/04/24 15:56:01;;;;;;;1.55;1.00;;;;;;;;;;10588764;27;20138;-84
2023/04/24 16:01:07;;;;;;;1.48;0.93;;;;;;;;;;10590663;27;20090;-84
2023/04/24 16:06:26;;;;;;;2.25;1.13;;;;;;;;;;10598259;27;20046;-84
2023/04/24 16:11:36;;;;;;;1.08;0.98;;;;;;;;;;10564178;27;20048;-86
2023/04/24 16:16:54;;;;;;;5.90;1.00;;;;;;;;;;10584949;27;20573;-85
2023/04/24 16:21:58;;;;;;;1.17;0.90;;;;;;;;;;10591913;27;20035;-84
2023/04/24 16:27:22;;;;;;;2.00;1.02;;;;;;;;;;10594013;27;20055;-83
2023/04/24 16:32:30;;;;;;;5.15;1.15;;;;;;;;;;10554604;27;20070;-83
2023/04/24 16:37:43;;;;;;;1.92;1.08;;;;;;;;;;10561451;27;20349;-83
2023/04/24 16:42:51;;;;;;;1.57;0.90;;;;;;;;;;10594909;27;20053;-83
2023/04/24 16:47:59;;;;;;;1.15;0.70;;;;;;;;;;10577484;27;20053;-82
2023/04/24 16:53:13;;;;;;;;;;;;;;;;;;10595739;27;20032;-82
2023/04/24 16:58:23;;;;;;;1.45;0.80;;;;;;;;;;10584415;27;20388;-81
2023/04/24 17:03:27;;;;;;;1.00;0.73;;;;;;;;;;10600199;27;20027;-81
2023/04/24 17:08:40;;;;;;;2.47;0.70;;;;;;;;;;10608775;27;20045;-84
2023/04/24 17:13:46;;;;;;;1.05;0.63;;;;;;;;;;10582971;27;20027;-84
2023/04/24 17:18:58;;;;;;;0.75;0.60;;;;;;;;;;10567449;27;20035;-84
2023/04/24 17:24:05;;;;;;;0.80;0.80;;;;;;;;;;10572566;27;20131;-82
2023/04/24 17:29:24;;;;;;;1.23;0.90;;;;;;;;;;10586377;27;20035;-84
2023/04/24 17:34:27;;;;;;;2.00;1.00;;;;;;;;;;10593592;27;20038;-84
2023/04/24 17:39:40;;;;;;;;;;;;;;;;;;10590371;27;20047;-82
2023/04/24 17:45:09;;;;;;;1.95;0.70;;;;;;;;;;10563260;27;19927;-82
2023/04/24 17:50:20;;;;;;;1.98;1.00;;;;;;;;;;10582511;27;20047;-81
2023/04/24 17:55:29;;;;;;;1.42;0.90;;;;;;;;;;10597096;27;20134;-82
2023/04/24 18:00:37;;;;;;;1.65;1.00;;;;;;;;;;10570188;27;20066;-82
2023/04/24 18:05:43;;;;;;;0.85;0.70;;;;;;;;;;10587679;27;20038;-82
2023/04/24 18:11:04;;;;;;;1.42;1.00;;;;;;;;;;10582490;27;20031;-82
2023/04/24 18:16:41;;;;;;;1.13;0.82;;;;;;;;;;10590899;27;20126;-83
2023/04/24 18:21:48;;;;;;;3.38;0.68;;;;;;;;;;10578364;27;20512;-83
2023/04/24 18:26:56;;;;;;;2.30;0.88;;;;;;;;;;10587274;27;20877;-81
2023/04/24 18:32:16;;;;;;;2.22;1.20;;;;;;;;;;10567612;27;20036;-86
2023/04/24 18:37:27;;;;;;;2.05;0.82;;;;;;;;;;10577269;27;20179;-84
2023/04/24 21:17:16;;;;;;;2.90;1.50;;;;;;;;;;10456590;28;20444;-76
2023/04/24 21:22:20;;;;;;;2.60;2.05;;;;;;;;;;10465629;28;20045;-75
2023/04/24 21:27:24;;;;;;;2.08;1.35;;;;;;;;;;10460052;28;20161;-76
2023/04/24 21:32:28;;;;;;;1.98;1.23;;;;;;;;;;10457224;28;20581;-77
2023/04/24 21:37:32;;;;;;;;;;;;;;;;;;10462046;28;20045;-76
2023/04/24 21:42:35;;;;;;;2.28;1.42;;;;;;;;;;10463858;28;19925;-76
2023/04/24 21:47:39;;;;;;;1.50;0.80;;;;;;;;;;10456752;28;20350;-76
2023/04/24 21:52:43;;;;;;;4.28;1.40;;;;;;;;;;10462387;28;20128;-75
2023/04/24 21:57:45;;;;;;;5.95;2.00;;;;;;;;;;10464394;28;20032;-76
2023/04/24 22:02:50;;;;;;;3.97;1.67;;;;;;;;;;10460472;28;20048;-76
2023/04/24 22:07:55;;;;;;;2.85;1.42;;;;;;;;;;10465307;28;20155;-78
2023/04/24 22:12:58;;;;;;;2.95;1.50;;;;;;;;;;10461994;28;20286;-77
2023/04/24 22:18:05;;;;;;;1.23;0.93;;;;;;;;;;10470903;28;20041;-77
2023/04/24 22:23:08;;;;;;;3.58;1.20;;;;;;;;;;10465342;28;20209;-78
2023/04/24 22:28:11;;;;;;;2.17;1.43;;;;;;;;;;10433083;28;20413;-76
2023/04/24 22:33:16;;;;;;;1.23;0.75;;;;;;;;;;10443994;28;20037;-76
2023/04/24 22:38:20;;;;;;;1.42;0.52;;;;;;;;;;10430157;28;20091;-76
2023/04/24 22:43:24;;;;;;;2.55;1.58;;;;;;;;;;10432488;28;20052;-76
2023/04/24 22:48:27;;;;;;;;;;;;;;;;;;10434622;28;20057;-77
2023/04/24 22:53:31;;;;;;;2.88;1.63;;;;;;;;;;10434753;28;19943;-76
2023/04/24 22:58:33;;;;;;;;;;;;;;;;;;10441086;28;20518;-74
2023/04/24 23:03:37;;;;;;;1.85;1.15;;;;;;;;;;10434966;28;19933;-76
2023/04/24 23:08:42;;;;;;;0.35;0.35;;;;;;;;;;10429366;28;20062;-76
2023/04/24 23:13:45;;;;;;;3.15;1.05;;;;;;;;;;10432724;28;20099;-76
2023/04/24 23:18:49;;;;;;;2.00;1.05;;;;;;;;;;10431383;28;20188;-76
2023/04/24 23:23:53;;;;;;;0.83;0.77;;;;;;;;;;10438847;28;20033;-76
2023/04/24 23:28:57;;;;;;;2.58;1.20;;;;;;;;;;10435601;28;20059;-77
2023/04/24 23:34:00;;;;;;;1.17;0.90;;;;;;;;;;10428892;28;20059;-77
2023/04/24 23:39:05;;;;;;;2.63;1.55;;;;;;;;;;10432178;28;20033;-76
2023/04/24 23:44:08;;;;;;;2.05;0.77;;;;;;;;;;10430922;28;20040;-76
2023/04/24 23:49:13;;;;;;;2.55;1.48;;;;;;;;;;10434319;28;20073;-76
2023/04/24 23:54:19;;;;;;;0.93;0.57;;;;;;;;;;10436758;28;20045;-77
2023/04/24 23:59:22;;;;;;;2.53;1.33;;;;;;;;;;10435456;28;20302;-75
